首页
METAR-TAF:

METAR-TAF

机场 :

直布羅陀機場

直布罗陀, 直布罗陀

纬度: 36-09N, 经度: 005-21W, 海拔: 5米

当前天气观测

该预报发布于39分钟前的14:50 UTC
风速14节,风向
温度 27°C
湿度 45%
气压 1015 hPa
能见度10公里或以上
少量云层高于5000英尺

METAR: LXGB 161450Z 19014KT 9999 FEW050 27/14 Q1015 NOSIG

时间: 17:29 (15:29 UTC)

预报

该预报发布于1小时和33分钟前的13:56 UTC
预报有效从16日的 15点(UTC)到 16日的 22点(UTC)
风速15节,风向,有时为25节阵风
能见度10公里或以上
少量云层高于3000英尺
成为
从 16日的 17点(UTC)到 16日的 20点(UTC)
风速12节,风向西转西南

TAF: LXGB 161356Z 1615/1622 19015G25KT 9999 FEW030 530001 BECMG 1617/1620 25012KT 50////

超过4000个机场的气象观测和天气预报(METAR&TAF报告)。

可查询的气象台以黄色和红色小点在地图上表示。

将鼠标移到小点上方,可查看气象台名称。

然后点击查看天气观测和预报。

如需切换地图:点击带黑十字的绿色按钮放大地图;点击带横线的绿色按钮缩小地图;或者点击绿色箭头查看邻近地区的地图。


METAR-TAF: